createdAt,value
2022-11-02T00:00:48.657Z,18.10
2022-11-02T00:03:18.410Z,21.15
2022-11-02T00:05:47.622Z,20.75
2022-11-02T00:08:16.787Z,20.85
2022-11-02T00:10:46.008Z,27.27
2022-11-02T00:13:15.177Z,29.88
2022-11-02T00:15:44.499Z,26.38
2022-11-02T00:18:16.536Z,28.02
2022-11-02T00:20:46.083Z,25.05
2022-11-02T00:23:16.490Z,25.17
2022-11-02T00:25:49.382Z,25.77
2022-11-02T00:28:19.075Z,26.70
2022-11-02T00:30:48.372Z,24.00
2022-11-02T00:33:17.571Z,23.52
2022-11-02T00:35:47.671Z,24.17
2022-11-02T00:38:16.945Z,24.40
2022-11-02T00:40:46.166Z,23.08
2022-11-02T00:43:15.614Z,22.35
2022-11-02T00:45:44.831Z,21.15
2022-11-02T00:48:14.178Z,20.98
2022-11-02T00:50:43.679Z,20.30
2022-11-02T00:53:12.902Z,19.63
2022-11-02T00:55:42.152Z,24.83
2022-11-02T00:58:10.918Z,20.05
2022-11-02T01:00:39.669Z,18.40
2022-11-02T01:03:08.398Z,19.45
2022-11-02T01:05:39.162Z,18.88
2022-11-02T01:08:07.889Z,18.50
2022-11-02T01:10:36.837Z,18.02
2022-11-02T01:13:05.628Z,18.55
2022-11-02T01:15:34.354Z,17.73
2022-11-02T01:18:03.428Z,17.23
2022-11-02T01:20:32.596Z,16.90
2022-11-02T01:23:01.328Z,17.48
2022-11-02T01:25:30.092Z,17.30
2022-11-02T01:27:58.935Z,17.17
2022-11-02T01:30:27.688Z,17.23
2022-11-02T01:32:56.489Z,16.67
2022-11-02T01:35:25.269Z,23.60
2022-11-02T01:37:53.956Z,16.60
2022-11-02T01:40:22.718Z,16.15
2022-11-02T01:42:51.421Z,14.27
2022-11-02T01:45:20.218Z,14.88
2022-11-02T01:47:50.534Z,15.30
2022-11-02T01:50:24.672Z,14.40
2022-11-02T01:52:54.202Z,14.75
2022-11-02T01:55:30.406Z,14.20
2022-11-02T01:58:06.332Z,14.38
2022-11-02T02:00:35.411Z,15.40
2022-11-02T02:03:22.217Z,13.98
2022-11-02T02:05:57.665Z,13.77
2022-11-02T02:08:27.974Z,14.07
2022-11-02T02:10:59.081Z,14.73
2022-11-02T02:13:29.494Z,15.73
2022-11-02T02:16:06.063Z,13.75
2022-11-02T02:18:41.010Z,13.23
2022-11-02T02:21:48.920Z,12.77
2022-11-02T02:24:22.073Z,13.18
2022-11-02T02:26:56.133Z,12.65
2022-11-02T02:29:34.724Z,13.35
2022-11-02T02:32:13.956Z,13.60
2022-11-02T02:34:55.598Z,13.38
2022-11-02T02:37:41.208Z,13.55
2022-11-02T02:40:17.096Z,12.70
2022-11-02T02:42:52.271Z,13.55
2022-11-02T02:45:30.989Z,13.20
2022-11-02T02:48:04.879Z,13.60
2022-11-02T02:50:40.733Z,13.93
2022-11-02T02:53:11.543Z,14.10
2022-11-02T02:55:45.469Z,15.30
2022-11-02T02:58:21.982Z,14.35
2022-11-02T03:00:51.107Z,15.27
2022-11-02T03:03:29.264Z,14.50
2022-11-02T03:06:25.740Z,14.38
2022-11-02T03:09:01.189Z,13.43
2022-11-02T03:11:30.379Z,14.65
2022-11-02T03:14:07.351Z,14.38
2022-11-02T03:16:43.486Z,13.98
2022-11-02T03:19:42.641Z,12.98
2022-11-02T03:22:38.110Z,13.45
2022-11-02T03:25:27.034Z,13.40
2022-11-02T03:28:04.835Z,12.38
2022-11-02T03:30:41.750Z,13.10
2022-11-02T03:33:26.841Z,14.10
2022-11-02T03:36:20.169Z,12.95
2022-11-02T03:38:57.448Z,13.50
2022-11-02T03:41:27.683Z,13.40
2022-11-02T03:44:05.087Z,12.23
2022-11-02T03:46:36.407Z,11.10
2022-11-02T03:49:08.439Z,11.82
2022-11-02T03:51:40.900Z,12.25
2022-11-02T03:54:29.668Z,10.57
2022-11-02T03:57:02.546Z,10.43
2022-11-02T04:02:03.661Z,9.20
2022-11-02T04:04:32.501Z,9.90
2022-11-02T04:07:01.202Z,10.00
2022-11-02T04:09:30.337Z,10.57
2022-11-02T04:12:18.685Z,11.13
2022-11-02T04:14:48.740Z,12.05
2022-11-02T04:17:37.132Z,11.60
2022-11-02T04:20:07.940Z,12.60
2022-11-02T04:22:56.449Z,11.60
2022-11-02T04:25:25.319Z,11.45
2022-11-02T04:27:55.040Z,12.45
2022-11-02T04:30:24.881Z,12.57
2022-11-02T04:33:14.617Z,13.43
2022-11-02T04:35:43.357Z,13.00
2022-11-02T04:38:32.419Z,9.93
2022-11-02T04:41:22.224Z,10.23
2022-11-02T04:43:50.969Z,9.77
2022-11-02T04:46:20.708Z,10.02
2022-11-02T04:48:49.849Z,10.25
2022-11-02T04:51:19.103Z,11.13
2022-11-02T04:53:48.566Z,10.32
2022-11-02T04:56:17.839Z,10.55
2022-11-02T04:58:52.201Z,10.40
2022-11-02T05:01:22.267Z,10.13
2022-11-02T05:03:54.344Z,10.85
2022-11-02T05:06:24.680Z,10.87
2022-11-02T05:08:53.853Z,11.38
2022-11-02T05:11:22.628Z,10.63
2022-11-02T05:13:51.478Z,10.57
2022-11-02T05:16:20.288Z,11.25
2022-11-02T05:18:50.849Z,11.43
2022-11-02T05:21:19.673Z,10.38
2022-11-02T05:23:48.412Z,10.63
2022-11-02T05:26:17.144Z,11.07
2022-11-02T05:28:46.198Z,10.90
2022-11-02T05:31:14.882Z,10.23
2022-11-02T05:33:43.763Z,12.40
2022-11-02T05:36:12.534Z,11.20
2022-11-02T05:38:41.261Z,11.60
2022-11-02T05:41:11.188Z,11.15
2022-11-02T05:43:40.187Z,10.60
2022-11-02T05:46:08.900Z,10.90
2022-11-02T05:48:37.671Z,11.20
2022-11-02T05:51:07.174Z,10.57
2022-11-02T05:53:39.276Z,11.45
2022-11-02T05:56:11.105Z,10.15
2022-11-02T05:58:39.966Z,10.68
2022-11-02T06:01:10.165Z,11.00
2022-11-02T06:03:39.748Z,10.88
2022-11-02T06:06:11.563Z,10.82
2022-11-02T06:08:40.933Z,10.80
2022-11-02T06:11:12.289Z,11.40
2022-11-02T06:13:42.032Z,10.95
2022-11-02T06:16:12.837Z,10.88
2022-11-02T06:18:42.143Z,11.25
2022-11-02T06:21:10.960Z,11.15
2022-11-02T06:23:40.595Z,9.90
2022-11-02T06:26:10.658Z,11.15
2022-11-02T06:28:39.440Z,11.30
2022-11-02T06:31:08.353Z,11.50
2022-11-02T06:33:37.242Z,10.23
2022-11-02T06:36:07.023Z,10.40
2022-11-02T06:38:36.046Z,10.60
2022-11-02T06:41:07.701Z,10.85
2022-11-02T06:43:39.419Z,10.65
2022-11-02T06:46:08.610Z,10.60
2022-11-02T06:48:37.390Z,10.45
2022-11-02T06:51:07.939Z,11.63
2022-11-02T06:53:39.322Z,10.82
2022-11-02T06:56:08.393Z,11.70
2022-11-02T06:58:37.145Z,11.15
2022-11-02T07:01:09.560Z,10.80
2022-11-02T07:03:38.670Z,10.55
2022-11-02T07:06:12.799Z,11.25
2022-11-02T07:08:43.576Z,11.55
2022-11-02T07:11:20.109Z,10.80
2022-11-02T07:13:49.407Z,11.00
2022-11-02T07:16:18.326Z,11.35
2022-11-02T07:18:47.188Z,10.70
2022-11-02T07:21:16.137Z,10.45
2022-11-02T07:23:44.926Z,10.05
2022-11-02T07:26:13.651Z,10.35
2022-11-02T07:28:47.042Z,11.18
2022-11-02T07:31:16.150Z,10.45
2022-11-02T07:33:52.108Z,11.50
2022-11-02T07:36:21.247Z,10.95
2022-11-02T07:38:50.003Z,10.35
2022-11-02T07:41:18.772Z,10.43
2022-11-02T07:43:47.630Z,10.77
2022-11-02T07:46:16.483Z,9.82
2022-11-02T07:48:45.206Z,10.95
2022-11-02T07:51:14.098Z,9.60
2022-11-02T07:53:42.801Z,10.02
2022-11-02T07:56:11.986Z,11.38
2022-11-02T07:58:40.841Z,10.45
2022-11-02T08:01:09.632Z,10.48
2022-11-02T08:03:38.481Z,10.15
2022-11-02T08:06:08.212Z,10.32
2022-11-02T08:08:37.557Z,10.35
2022-11-02T08:11:09.420Z,10.75
2022-11-02T08:13:40.040Z,11.13
2022-11-02T08:16:11.190Z,10.15
2022-11-02T08:18:39.909Z,10.80
2022-11-02T08:21:08.904Z,10.45
2022-11-02T08:23:39.042Z,10.48
2022-11-02T08:26:07.885Z,10.32
2022-11-02T08:28:37.748Z,10.10
2022-11-02T08:31:08.204Z,10.30
2022-11-02T08:33:36.948Z,9.95
2022-11-02T08:36:06.500Z,8.90
2022-11-02T08:38:36.365Z,10.52
2022-11-02T08:41:05.790Z,9.43
2022-11-02T08:43:34.574Z,9.27
2022-11-02T08:46:20.167Z,9.70
2022-11-02T08:48:49.395Z,9.23
2022-11-02T08:51:18.203Z,10.15
2022-11-02T08:53:51.455Z,9.70
2022-11-02T08:56:21.222Z,9.43
2022-11-02T08:58:49.956Z,9.75
2022-11-02T09:01:18.783Z,9.85
2022-11-02T09:03:47.681Z,9.20
2022-11-02T09:06:16.435Z,9.65
2022-11-02T09:08:45.320Z,8.85
2022-11-02T09:11:14.299Z,10.38
2022-11-02T09:13:43.188Z,9.18
2022-11-02T09:16:12.033Z,10.35
2022-11-02T09:18:41.209Z,9.15
2022-11-02T09:21:10.237Z,9.63
2022-11-02T09:23:38.915Z,9.25
2022-11-02T09:26:07.739Z,9.65
2022-11-02T09:28:36.519Z,9.48
2022-11-02T09:31:08.910Z,10.23
2022-11-02T09:33:40.398Z,10.60
2022-11-02T09:36:09.782Z,11.98
2022-11-02T09:38:39.138Z,10.05
2022-11-02T09:41:19.854Z,25.00
2022-11-02T09:43:53.859Z,9.90
2022-11-02T09:46:35.969Z,10.05
2022-11-02T09:49:18.432Z,9.85
2022-11-02T09:51:53.496Z,9.93
2022-11-02T09:54:23.109Z,10.38
2022-11-02T09:56:53.603Z,10.20
2022-11-02T09:59:24.706Z,10.50
2022-11-02T10:02:14.683Z,11.80
2022-11-02T10:05:22.639Z,10.35
2022-11-02T10:08:09.992Z,10.95
2022-11-02T10:10:49.194Z,10.70
2022-11-02T10:13:26.360Z,10.82
2022-11-02T10:16:01.689Z,10.25
2022-11-02T10:18:32.663Z,11.05
2022-11-02T10:21:07.834Z,11.20
2022-11-02T10:23:42.128Z,11.82
2022-11-02T10:26:20.782Z,10.55
2022-11-02T10:28:53.088Z,10.32
2022-11-02T10:31:28.661Z,10.98
2022-11-02T10:34:01.087Z,10.85
2022-11-02T10:36:55.223Z,9.88
2022-11-02T10:39:38.781Z,11.65
2022-11-02T10:42:35.218Z,13.30
2022-11-02T10:45:22.556Z,14.38
2022-11-02T10:48:18.871Z,15.27
2022-11-02T10:50:49.589Z,14.40
2022-11-02T10:53:40.148Z,14.40
2022-11-02T10:56:16.901Z,14.82
2022-11-02T10:59:06.998Z,13.07
2022-11-02T11:01:36.642Z,14.20
2022-11-02T11:04:21.729Z,14.32
2022-11-02T11:06:51.012Z,14.70
2022-11-02T11:09:22.078Z,13.75
2022-11-02T11:12:08.456Z,16.38
2022-11-02T11:20:44.761Z,20.00
2022-11-02T11:23:23.987Z,20.38
2022-11-02T11:26:13.276Z,20.45
2022-11-02T11:28:56.557Z,20.83
2022-11-02T11:31:25.641Z,20.33
2022-11-02T11:33:57.544Z,19.48
2022-11-02T11:36:37.051Z,20.80
2022-11-02T11:39:26.103Z,19.52
2022-11-02T11:41:54.955Z,20.05
2022-11-02T11:44:24.213Z,19.65
2022-11-02T11:47:05.609Z,18.25
2022-11-02T11:52:32.247Z,18.40
2022-11-02T11:55:21.402Z,18.38
2022-11-02T11:58:07.672Z,18.95
2022-11-02T12:00:36.997Z,18.10
2022-11-02T12:03:14.983Z,18.88
2022-11-02T12:05:46.711Z,20.33
2022-11-02T12:08:38.944Z,18.63
2022-11-02T12:11:08.852Z,21.83
2022-11-02T12:13:51.172Z,36.53
2022-11-02T12:16:55.855Z,30.88
2022-11-02T12:19:44.590Z,28.60
2022-11-02T12:22:33.374Z,25.98
2022-11-02T12:25:07.926Z,26.38
2022-11-02T12:27:51.020Z,24.90
2022-11-02T12:33:15.853Z,27.98
2022-11-02T12:36:08.335Z,26.90
2022-11-02T12:38:38.002Z,26.97
2022-11-02T12:42:09.195Z,28.90
2022-11-02T12:44:59.574Z,25.75
2022-11-02T12:47:52.247Z,25.90
2022-11-02T12:50:32.165Z,23.58
2022-11-02T12:53:42.357Z,23.77
2022-11-02T12:59:43.358Z,23.95
2022-11-02T13:02:24.928Z,25.38
2022-11-02T13:05:10.853Z,25.05
2022-11-02T13:07:51.477Z,24.15
2022-11-02T13:10:31.488Z,25.55
2022-11-02T13:13:13.359Z,25.85
2022-11-02T13:15:50.703Z,25.27
2022-11-02T13:18:30.301Z,25.83
2022-11-02T13:21:08.622Z,25.13
2022-11-02T13:23:43.524Z,24.42
2022-11-02T13:26:21.685Z,23.25
2022-11-02T13:28:59.830Z,23.98
2022-11-02T13:31:53.152Z,21.90
2022-11-02T13:37:25.302Z,24.48
2022-11-02T13:40:06.351Z,23.67
2022-11-02T13:43:06.573Z,22.75
2022-11-02T13:46:21.191Z,21.38
2022-11-02T13:49:15.583Z,21.88
2022-11-02T13:54:46.654Z,21.48
2022-11-02T13:57:42.556Z,21.00
2022-11-02T14:00:56.846Z,21.13
2022-11-02T14:06:39.179Z,23.92
2022-11-02T14:09:11.859Z,29.45
2022-11-02T14:11:46.825Z,28.92
2022-11-02T14:17:25.967Z,28.70
2022-11-02T14:20:07.032Z,27.05
2022-11-02T14:22:49.678Z,26.88
2022-11-02T14:31:12.278Z,25.50
2022-11-02T14:37:20.962Z,25.20
2022-11-02T14:40:30.858Z,24.30
2022-11-02T14:43:39.993Z,22.65
2022-11-02T14:46:30.205Z,21.92
2022-11-02T14:49:06.864Z,22.50
2022-11-02T14:51:46.424Z,23.70
2022-11-02T14:57:22.032Z,25.38
2022-11-02T15:00:07.989Z,25.85
2022-11-02T15:02:43.279Z,27.58
2022-11-02T15:05:56.928Z,30.15
2022-11-02T15:12:00.731Z,29.95
2022-11-02T15:14:55.133Z,30.13
2022-11-02T15:17:50.153Z,30.13
2022-11-02T15:23:36.760Z,30.33
2022-11-02T15:29:06.452Z,28.83
2022-11-02T15:31:53.335Z,28.80
2022-11-02T15:34:38.478Z,29.58
2022-11-02T15:37:27.415Z,30.30
2022-11-02T15:41:36.980Z,30.55
2022-11-02T15:43:11.700Z,33.72
2022-11-02T15:46:00.154Z,32.85
2022-11-02T15:49:36.639Z,32.28
2022-11-02T15:52:17.375Z,32.88
2022-11-02T15:55:14.464Z,32.53
2022-11-02T15:57:52.897Z,31.27
2022-11-02T16:00:31.010Z,30.58
2022-11-02T16:03:05.431Z,30.90
2022-11-02T16:05:42.856Z,29.70
2022-11-02T16:08:33.549Z,29.20
2022-11-02T16:11:20.996Z,29.85
2022-11-02T16:14:08.012Z,30.45
2022-11-02T16:16:48.872Z,30.30
2022-11-02T16:19:21.789Z,32.65
2022-11-02T16:21:51.694Z,29.83
2022-11-02T16:24:21.183Z,30.13
2022-11-02T16:26:50.907Z,30.55
2022-11-02T16:29:30.480Z,29.45
2022-11-02T16:31:59.567Z,29.73
2022-11-02T16:34:32.493Z,29.38
2022-11-02T16:39:42.883Z,30.75
2022-11-02T16:42:19.248Z,31.63
2022-11-02T16:45:05.699Z,30.95
2022-11-02T16:47:49.583Z,29.52
2022-11-02T16:50:23.718Z,31.00
2022-11-02T16:52:59.107Z,30.10
2022-11-02T16:55:39.452Z,29.50
2022-11-02T16:58:14.156Z,29.75
2022-11-02T17:01:24.499Z,28.77
2022-11-02T17:03:53.368Z,29.15
2022-11-02T17:06:22.496Z,29.13
2022-11-02T17:08:55.383Z,27.90
2022-11-02T17:13:57.034Z,28.95
2022-11-02T17:16:25.785Z,28.80
2022-11-02T17:18:54.466Z,27.75
2022-11-02T17:21:27.664Z,29.77
2022-11-02T17:23:58.957Z,30.30
2022-11-02T17:26:29.548Z,28.90
2022-11-02T17:28:59.840Z,29.75
2022-11-02T17:31:39.324Z,29.27
2022-11-02T17:34:16.819Z,30.00
2022-11-02T17:36:47.939Z,30.23
2022-11-02T17:39:18.892Z,30.10
2022-11-02T17:42:13.774Z,30.65
2022-11-02T17:44:42.618Z,29.50
2022-11-02T17:47:16.976Z,29.48
2022-11-02T17:49:45.642Z,30.40
2022-11-02T17:52:17.271Z,29.77
2022-11-02T17:54:46.099Z,30.77
2022-11-02T17:57:15.937Z,29.65
2022-11-02T17:59:44.601Z,30.30
2022-11-02T18:02:16.114Z,31.45
2022-11-02T18:04:45.083Z,31.60
2022-11-02T18:07:13.737Z,30.33
2022-11-02T18:09:42.391Z,30.88
2022-11-02T18:12:15.308Z,29.52
2022-11-02T18:17:12.230Z,28.80
2022-11-02T18:19:40.893Z,29.98
2022-11-02T18:22:11.286Z,28.58
2022-11-02T18:24:40.788Z,29.88
2022-11-02T18:27:09.467Z,29.17
2022-11-02T18:29:38.065Z,29.77
2022-11-02T18:32:06.865Z,30.05
2022-11-02T18:34:35.505Z,28.80
2022-11-02T18:37:04.403Z,28.73
2022-11-02T18:39:33.390Z,29.02
2022-11-02T18:42:02.136Z,28.48
2022-11-02T18:44:30.843Z,28.83
2022-11-02T18:47:00.372Z,28.20
2022-11-02T18:49:28.990Z,28.50
2022-11-02T18:51:57.643Z,26.90
2022-11-02T18:54:27.013Z,26.80
2022-11-02T18:56:56.147Z,26.10
2022-11-02T18:59:24.778Z,27.80
2022-11-02T19:01:54.837Z,26.48
2022-11-02T19:04:23.723Z,26.45
2022-11-02T19:07:13.888Z,25.83
2022-11-02T19:09:45.136Z,26.83
2022-11-02T19:12:19.229Z,25.23
2022-11-02T19:14:50.685Z,23.83
2022-11-02T19:17:20.377Z,24.98
2022-11-02T19:19:50.163Z,23.33
2022-11-02T19:22:22.023Z,24.25
2022-11-02T19:24:50.871Z,23.30
2022-11-02T19:27:25.395Z,23.67
2022-11-02T19:29:54.191Z,23.77
2022-11-02T19:32:22.983Z,23.83
2022-11-02T19:34:52.099Z,23.20
2022-11-02T19:37:21.272Z,22.63
2022-11-02T19:39:49.948Z,22.48
2022-11-02T19:42:18.694Z,23.42
2022-11-02T19:44:47.360Z,22.33
2022-11-02T19:47:16.178Z,23.65
2022-11-02T19:49:44.991Z,22.88
2022-11-02T19:52:13.675Z,22.92
2022-11-02T19:54:42.351Z,22.65
2022-11-02T19:57:11.123Z,23.50
2022-11-02T19:59:39.823Z,22.40
2022-11-02T20:02:10.575Z,23.38
2022-11-02T20:04:42.385Z,24.48
2022-11-02T20:07:11.284Z,24.35
2022-11-02T20:09:40.086Z,26.05
2022-11-02T20:12:09.046Z,26.25
2022-11-02T20:14:39.279Z,25.52
2022-11-02T20:19:56.829Z,25.10
2022-11-02T20:22:25.649Z,25.13
2022-11-02T20:24:54.400Z,24.85
2022-11-02T20:27:23.159Z,25.25
2022-11-02T20:29:51.999Z,40.30
2022-11-02T20:32:23.301Z,25.40
2022-11-02T20:34:52.244Z,25.20
2022-11-02T20:37:20.950Z,26.48
2022-11-02T20:39:50.733Z,27.42
2022-11-02T20:42:19.482Z,168.45
2022-11-02T20:44:50.198Z,89.18
2022-11-02T20:47:18.966Z,26.98
2022-11-02T20:49:51.317Z,47.75
2022-11-02T20:52:22.824Z,26.63
2022-11-02T20:54:51.574Z,26.30
2022-11-02T20:57:20.365Z,26.67
2022-11-02T20:59:49.072Z,27.77
2022-11-02T21:02:18.005Z,28.85
2022-11-02T21:04:46.730Z,29.38
2022-11-02T21:07:15.481Z,28.98
2022-11-02T21:09:44.627Z,31.73
2022-11-02T21:12:35.903Z,30.60
2022-11-02T21:15:04.895Z,36.33
2022-11-02T21:17:33.604Z,47.40
2022-11-02T21:20:28.545Z,46.90
2022-11-02T21:22:52.287Z,45.55
2022-11-02T21:25:21.307Z,46.50
2022-11-02T21:27:52.066Z,46.60
2022-11-02T21:30:21.196Z,44.83
2022-11-02T21:32:53.928Z,40.05
2022-11-02T21:35:23.123Z,41.00
2022-11-02T21:37:56.062Z,45.08
2022-11-02T21:42:53.641Z,42.10
2022-11-02T21:45:25.986Z,38.75
2022-11-02T21:47:54.981Z,39.95
2022-11-02T21:50:24.920Z,40.13
2022-11-02T21:52:53.598Z,38.90
2022-11-02T21:55:22.347Z,37.20
2022-11-02T21:57:51.051Z,35.45
2022-11-02T22:00:22.547Z,35.72
2022-11-02T22:02:51.730Z,35.63
2022-11-02T22:05:40.070Z,39.50
2022-11-02T22:10:59.362Z,33.08
2022-11-02T22:13:35.321Z,33.70
2022-11-02T22:16:14.010Z,33.38
2022-11-02T22:18:45.124Z,33.47
2022-11-02T22:21:14.427Z,32.78
2022-11-02T22:23:45.302Z,33.33
2022-11-02T22:26:16.554Z,34.42
2022-11-02T22:28:46.519Z,36.88
2022-11-02T22:31:17.550Z,36.55
2022-11-02T22:33:48.029Z,36.88
2022-11-02T22:36:19.563Z,39.85
2022-11-02T22:38:49.774Z,39.38
2022-11-02T22:41:21.433Z,38.13
2022-11-02T22:43:52.359Z,38.55
2022-11-02T22:46:21.397Z,38.92
2022-11-02T22:48:52.775Z,37.85
2022-11-02T22:51:23.304Z,38.25
2022-11-02T22:53:52.342Z,38.92
2022-11-02T22:56:23.359Z,40.92
2022-11-02T22:58:52.375Z,40.13
2022-11-02T23:01:25.624Z,40.95
2022-11-02T23:03:54.894Z,38.83
2022-11-02T23:06:25.035Z,38.20
2022-11-02T23:08:55.886Z,38.15
2022-11-02T23:11:27.922Z,36.85
2022-11-02T23:14:00.157Z,39.60
2022-11-02T23:16:32.666Z,36.70
2022-11-02T23:19:27.213Z,37.63
2022-11-02T23:22:21.152Z,37.80
2022-11-02T23:25:12.205Z,37.27
2022-11-02T23:28:05.565Z,37.17
2022-11-02T23:30:57.084Z,35.70
2022-11-02T23:33:35.001Z,36.00
2022-11-02T23:36:21.435Z,38.47
2022-11-02T23:39:10.820Z,37.78
2022-11-02T23:41:40.396Z,36.67
2022-11-02T23:44:16.390Z,37.78
2022-11-02T23:46:46.993Z,41.10
2022-11-02T23:49:18.174Z,39.35
2022-11-02T23:52:06.767Z,38.28
2022-11-02T23:54:55.099Z,37.65
2022-11-02T23:57:23.884Z,39.25
2022-11-02T23:59:52.865Z,38.95
